sensor_id;sensor_type;location;lat;lon;timestamp;pressure;altitude;pressure_sealevel;temperature;humidity
49063;BME280;34876;51.464;-0.150;2023-03-21T00:01:16;101271.01;;;18.45;45.13
49063;BME280;34876;51.464;-0.150;2023-03-21T00:03:45;101274.17;;;18.44;45.13
49063;BME280;34876;51.464;-0.150;2023-03-21T00:06:15;101270.23;;;18.44;45.20
49063;BME280;34876;51.464;-0.150;2023-03-21T00:08:44;101263.75;;;18.42;45.21
49063;BME280;34876;51.464;-0.150;2023-03-21T00:11:14;101256.17;;;18.38;46.38
49063;BME280;34876;51.464;-0.150;2023-03-21T00:13:43;101251.91;;;18.39;45.27
49063;BME280;34876;51.464;-0.150;2023-03-21T00:16:14;101249.18;;;18.43;45.15
49063;BME280;34876;51.464;-0.150;2023-03-21T00:18:44;101243.51;;;18.44;45.16
49063;BME280;34876;51.464;-0.150;2023-03-21T00:21:15;101245.00;;;18.43;45.20
49063;BME280;34876;51.464;-0.150;2023-03-21T00:23:45;101247.04;;;18.44;45.20
49063;BME280;34876;51.464;-0.150;2023-03-21T00:26:14;101242.48;;;18.42;45.56
49063;BME280;34876;51.464;-0.150;2023-03-21T00:28:43;101241.80;;;18.38;45.29
49063;BME280;34876;51.464;-0.150;2023-03-21T00:31:12;101241.76;;;18.42;45.20
49063;BME280;34876;51.464;-0.150;2023-03-21T00:33:43;101241.41;;;18.42;45.19
49063;BME280;34876;51.464;-0.150;2023-03-21T00:36:12;101240.54;;;18.44;45.11
49063;BME280;34876;51.464;-0.150;2023-03-21T00:38:42;101239.84;;;18.42;45.18
49063;BME280;34876;51.464;-0.150;2023-03-21T00:41:12;101237.33;;;18.43;45.12
49063;BME280;34876;51.464;-0.150;2023-03-21T00:43:40;101234.52;;;18.44;45.10
49063;BME280;34876;51.464;-0.150;2023-03-21T00:46:09;101233.33;;;18.45;45.07
49063;BME280;34876;51.464;-0.150;2023-03-21T00:48:38;101226.83;;;18.45;45.10
49063;BME280;34876;51.464;-0.150;2023-03-21T00:51:11;101226.29;;;18.44;45.08
49063;BME280;34876;51.464;-0.150;2023-03-21T00:53:41;101221.00;;;18.45;45.06
49063;BME280;34876;51.464;-0.150;2023-03-21T00:56:10;101216.57;;;18.44;45.07
49063;BME280;34876;51.464;-0.150;2023-03-21T00:58:39;101212.73;;;18.44;45.10
49063;BME280;34876;51.464;-0.150;2023-03-21T01:03:12;101206.23;;;18.47;44.98
49063;BME280;34876;51.464;-0.150;2023-03-21T01:05:43;101199.98;;;18.44;45.05
49063;BME280;34876;51.464;-0.150;2023-03-21T01:08:14;101194.85;;;18.45;45.06
49063;BME280;34876;51.464;-0.150;2023-03-21T01:10:46;101188.68;;;18.45;45.10
49063;BME280;34876;51.464;-0.150;2023-03-21T01:13:18;101187.47;;;18.43;45.19
49063;BME280;34876;51.464;-0.150;2023-03-21T01:15:55;101186.93;;;18.44;45.21
49063;BME280;34876;51.464;-0.150;2023-03-21T01:18:28;101181.31;;;18.45;45.10
49063;BME280;34876;51.464;-0.150;2023-03-21T01:21:00;101175.05;;;18.44;45.10
49063;BME280;34876;51.464;-0.150;2023-03-21T01:23:30;101167.09;;;18.45;45.08
49063;BME280;34876;51.464;-0.150;2023-03-21T01:26:01;101166.93;;;18.45;45.04
49063;BME280;34876;51.464;-0.150;2023-03-21T01:28:31;101159.17;;;18.45;45.05
49063;BME280;34876;51.464;-0.150;2023-03-21T01:31:01;101157.98;;;18.43;45.11
49063;BME280;34876;51.464;-0.150;2023-03-21T01:33:32;101158.16;;;18.45;45.05
49063;BME280;34876;51.464;-0.150;2023-03-21T01:36:01;101157.51;;;18.44;45.07
49063;BME280;34876;51.464;-0.150;2023-03-21T01:38:31;101152.58;;;18.42;45.12
49063;BME280;34876;51.464;-0.150;2023-03-21T01:41:01;101154.19;;;18.43;45.10
49063;BME280;34876;51.464;-0.150;2023-03-21T01:43:32;101154.79;;;18.45;45.01
49063;BME280;34876;51.464;-0.150;2023-03-21T01:46:25;101153.35;;;18.43;45.17
49063;BME280;34876;51.464;-0.150;2023-03-21T01:49:01;101148.32;;;18.44;45.06
49063;BME280;34876;51.464;-0.150;2023-03-21T01:51:35;101151.17;;;18.45;45.09
49063;BME280;34876;51.464;-0.150;2023-03-21T01:54:09;101143.78;;;18.42;45.13
49063;BME280;34876;51.464;-0.150;2023-03-21T01:56:42;101135.95;;;18.42;45.12
49063;BME280;34876;51.464;-0.150;2023-03-21T01:59:17;101133.11;;;18.44;45.09
49063;BME280;34876;51.464;-0.150;2023-03-21T02:01:48;101129.47;;;18.44;45.10
49063;BME280;34876;51.464;-0.150;2023-03-21T02:04:18;101126.81;;;18.45;45.03
49063;BME280;34876;51.464;-0.150;2023-03-21T02:06:52;101129.35;;;18.46;45.02
49063;BME280;34876;51.464;-0.150;2023-03-21T02:09:27;101123.22;;;18.45;44.97
49063;BME280;34876;51.464;-0.150;2023-03-21T02:11:59;101119.66;;;18.45;45.11
49063;BME280;34876;51.464;-0.150;2023-03-21T02:14:32;101107.81;;;18.45;45.00
49063;BME280;34876;51.464;-0.150;2023-03-21T02:17:11;101100.29;;;18.47;44.96
49063;BME280;34876;51.464;-0.150;2023-03-21T02:21:37;101095.72;;;18.46;44.92
49063;BME280;34876;51.464;-0.150;2023-03-21T02:24:33;101084.10;;;18.45;44.99
49063;BME280;34876;51.464;-0.150;2023-03-21T02:27:13;101084.15;;;18.45;44.95
49063;BME280;34876;51.464;-0.150;2023-03-21T02:30:02;101082.74;;;18.45;44.94
49063;BME280;34876;51.464;-0.150;2023-03-21T02:32:55;101085.66;;;18.39;45.18
49063;BME280;34876;51.464;-0.150;2023-03-21T02:35:39;101083.90;;;18.44;44.98
49063;BME280;34876;51.464;-0.150;2023-03-21T02:38:17;101088.39;;;18.45;44.93
49063;BME280;34876;51.464;-0.150;2023-03-21T02:40:54;101084.30;;;18.45;44.94
49063;BME280;34876;51.464;-0.150;2023-03-21T02:43:32;101088.91;;;18.45;44.96
49063;BME280;34876;51.464;-0.150;2023-03-21T02:46:08;101089.43;;;18.45;44.97
49063;BME280;34876;51.464;-0.150;2023-03-21T02:48:44;101086.37;;;18.46;44.91
49063;BME280;34876;51.464;-0.150;2023-03-21T02:51:18;101086.14;;;18.46;44.93
49063;BME280;34876;51.464;-0.150;2023-03-21T02:53:52;101076.43;;;18.47;44.91
49063;BME280;34876;51.464;-0.150;2023-03-21T02:56:24;101073.75;;;18.48;44.89
49063;BME280;34876;51.464;-0.150;2023-03-21T02:58:54;101070.95;;;18.48;44.86
49063;BME280;34876;51.464;-0.150;2023-03-21T03:01:24;101071.12;;;18.46;44.88
49063;BME280;34876;51.464;-0.150;2023-03-21T03:03:53;101066.87;;;18.43;44.96
49063;BME280;34876;51.464;-0.150;2023-03-21T03:06:26;101069.85;;;18.45;44.95
49063;BME280;34876;51.464;-0.150;2023-03-21T03:09:11;101069.88;;;18.47;44.92
49063;BME280;34876;51.464;-0.150;2023-03-21T03:11:45;101065.95;;;18.43;44.95
49063;BME280;34876;51.464;-0.150;2023-03-21T03:14:30;101068.01;;;18.46;44.87
49063;BME280;34876;51.464;-0.150;2023-03-21T03:17:09;101065.71;;;18.46;44.93
49063;BME280;34876;51.464;-0.150;2023-03-21T03:19:53;101062.83;;;18.44;44.90
49063;BME280;34876;51.464;-0.150;2023-03-21T03:22:28;101060.99;;;18.46;44.85
49063;BME280;34876;51.464;-0.150;2023-03-21T03:25:04;101054.38;;;18.06;45.85
49063;BME280;34876;51.464;-0.150;2023-03-21T03:27:37;101056.47;;;18.39;45.03
49063;BME280;34876;51.464;-0.150;2023-03-21T03:30:11;101048.87;;;18.42;45.00
49063;BME280;34876;51.464;-0.150;2023-03-21T03:32:43;101043.12;;;18.41;44.96
49063;BME280;34876;51.464;-0.150;2023-03-21T03:35:15;101044.81;;;18.45;44.86
49063;BME280;34876;51.464;-0.150;2023-03-21T03:37:50;101035.57;;;18.46;44.84
49063;BME280;34876;51.464;-0.150;2023-03-21T03:40:26;101022.65;;;18.45;44.82
49063;BME280;34876;51.464;-0.150;2023-03-21T03:42:59;101015.89;;;18.43;44.89
49063;BME280;34876;51.464;-0.150;2023-03-21T03:45:34;101019.20;;;18.43;44.86
49063;BME280;34876;51.464;-0.150;2023-03-21T03:48:07;101014.56;;;18.43;44.85
49063;BME280;34876;51.464;-0.150;2023-03-21T03:50:43;101004.26;;;18.42;44.87
49063;BME280;34876;51.464;-0.150;2023-03-21T03:53:19;100996.18;;;18.43;44.84
49063;BME280;34876;51.464;-0.150;2023-03-21T03:55:50;100996.47;;;18.43;44.86
49063;BME280;34876;51.464;-0.150;2023-03-21T03:58:23;100999.70;;;18.43;44.80
49063;BME280;34876;51.464;-0.150;2023-03-21T04:00:54;101004.88;;;18.43;44.82
49063;BME280;34876;51.464;-0.150;2023-03-21T04:03:23;101012.03;;;18.35;45.02
49063;BME280;34876;51.464;-0.150;2023-03-21T04:05:51;100997.64;;;18.39;44.93
49063;BME280;34876;51.464;-0.150;2023-03-21T04:08:21;100984.82;;;18.41;44.86
49063;BME280;34876;51.464;-0.150;2023-03-21T04:10:51;100994.84;;;18.37;44.92
49063;BME280;34876;51.464;-0.150;2023-03-21T04:13:21;100992.93;;;18.41;44.79
49063;BME280;34876;51.464;-0.150;2023-03-21T04:15:49;100997.94;;;18.42;44.75
49063;BME280;34876;51.464;-0.150;2023-03-21T04:18:19;100995.63;;;18.29;45.06
49063;BME280;34876;51.464;-0.150;2023-03-21T04:20:48;100973.52;;;18.40;44.81
49063;BME280;34876;51.464;-0.150;2023-03-21T04:23:18;100980.01;;;18.37;44.96
49063;BME280;34876;51.464;-0.150;2023-03-21T04:25:47;100963.38;;;18.34;44.96
49063;BME280;34876;51.464;-0.150;2023-03-21T04:28:17;100962.55;;;18.41;44.76
49063;BME280;34876;51.464;-0.150;2023-03-21T04:30:49;100949.45;;;18.40;44.71
49063;BME280;34876;51.464;-0.150;2023-03-21T04:33:18;100953.49;;;18.42;44.67
49063;BME280;34876;51.464;-0.150;2023-03-21T04:35:49;100972.16;;;18.41;44.68
49063;BME280;34876;51.464;-0.150;2023-03-21T04:38:17;100974.67;;;18.42;44.62
49063;BME280;34876;51.464;-0.150;2023-03-21T04:40:46;100979.92;;;18.29;44.98
49063;BME280;34876;51.464;-0.150;2023-03-21T04:43:16;100979.27;;;18.38;44.72
49063;BME280;34876;51.464;-0.150;2023-03-21T04:45:46;100976.01;;;18.41;44.59
49063;BME280;34876;51.464;-0.150;2023-03-21T04:48:17;100955.94;;;18.41;44.56
49063;BME280;34876;51.464;-0.150;2023-03-21T04:50:46;100968.94;;;18.42;44.51
49063;BME280;34876;51.464;-0.150;2023-03-21T04:53:15;100969.30;;;18.40;44.62
49063;BME280;34876;51.464;-0.150;2023-03-21T04:55:45;100973.50;;;18.34;44.75
49063;BME280;34876;51.464;-0.150;2023-03-21T04:58:14;100971.09;;;18.40;44.55
49063;BME280;34876;51.464;-0.150;2023-03-21T05:00:43;100964.33;;;18.41;44.51
49063;BME280;34876;51.464;-0.150;2023-03-21T05:03:12;100960.69;;;18.39;44.56
49063;BME280;34876;51.464;-0.150;2023-03-21T05:05:41;100960.94;;;18.40;44.55
49063;BME280;34876;51.464;-0.150;2023-03-21T05:08:10;100954.91;;;18.37;44.66
49063;BME280;34876;51.464;-0.150;2023-03-21T05:10:40;100952.89;;;18.25;44.83
49063;BME280;34876;51.464;-0.150;2023-03-21T05:13:09;100948.11;;;18.38;44.56
49063;BME280;34876;51.464;-0.150;2023-03-21T05:15:38;100949.56;;;18.36;44.60
49063;BME280;34876;51.464;-0.150;2023-03-21T05:18:07;100945.09;;;18.37;44.62
49063;BME280;34876;51.464;-0.150;2023-03-21T05:20:36;100942.72;;;18.38;44.52
49063;BME280;34876;51.464;-0.150;2023-03-21T05:23:06;100939.57;;;18.38;44.56
49063;BME280;34876;51.464;-0.150;2023-03-21T05:25:35;100942.42;;;18.38;44.52
49063;BME280;34876;51.464;-0.150;2023-03-21T05:28:06;100940.79;;;18.30;44.76
49063;BME280;34876;51.464;-0.150;2023-03-21T05:30:35;100942.52;;;18.36;44.61
49063;BME280;34876;51.464;-0.150;2023-03-21T05:33:16;100943.89;;;18.39;44.54
49063;BME280;34876;51.464;-0.150;2023-03-21T05:35:49;100937.82;;;18.38;44.54
49063;BME280;34876;51.464;-0.150;2023-03-21T05:38:18;100935.10;;;18.11;45.25
49063;BME280;34876;51.464;-0.150;2023-03-21T05:40:48;100928.87;;;18.20;45.03
49063;BME280;34876;51.464;-0.150;2023-03-21T05:43:17;100927.26;;;18.34;44.69
49063;BME280;34876;51.464;-0.150;2023-03-21T05:45:46;100921.52;;;18.36;44.58
49063;BME280;34876;51.464;-0.150;2023-03-21T05:48:15;100913.63;;;18.38;44.50
49063;BME280;34876;51.464;-0.150;2023-03-21T05:50:44;100913.26;;;18.38;44.51
49063;BME280;34876;51.464;-0.150;2023-03-21T05:53:13;100917.60;;;18.38;44.51
49063;BME280;34876;51.464;-0.150;2023-03-21T05:55:41;100931.11;;;18.39;44.46
49063;BME280;34876;51.464;-0.150;2023-03-21T05:58:11;100931.21;;;18.40;44.47
49063;BME280;34876;51.464;-0.150;2023-03-21T06:00:39;100929.71;;;18.40;44.43
49063;BME280;34876;51.464;-0.150;2023-03-21T06:03:08;100930.06;;;18.40;44.42
49063;BME280;34876;51.464;-0.150;2023-03-21T06:05:37;100936.78;;;18.40;44.42
49063;BME280;34876;51.464;-0.150;2023-03-21T06:08:06;100933.04;;;18.40;44.49
49063;BME280;34876;51.464;-0.150;2023-03-21T06:10:35;100938.45;;;18.40;44.40
49063;BME280;34876;51.464;-0.150;2023-03-21T06:13:04;100934.55;;;18.40;44.42
49063;BME280;34876;51.464;-0.150;2023-03-21T06:15:33;100933.79;;;18.42;44.37
49063;BME280;34876;51.464;-0.150;2023-03-21T06:18:02;100933.73;;;18.41;44.43
49063;BME280;34876;51.464;-0.150;2023-03-21T06:20:31;100933.16;;;18.41;44.43
49063;BME280;34876;51.464;-0.150;2023-03-21T06:23:00;100929.00;;;18.41;44.36
49063;BME280;34876;51.464;-0.150;2023-03-21T06:25:28;100925.09;;;18.41;44.43
49063;BME280;34876;51.464;-0.150;2023-03-21T06:27:58;100920.65;;;18.41;44.40
49063;BME280;34876;51.464;-0.150;2023-03-21T06:30:27;100916.75;;;18.42;44.37
49063;BME280;34876;51.464;-0.150;2023-03-21T06:32:56;100921.04;;;18.33;44.63
49063;BME280;34876;51.464;-0.150;2023-03-21T06:35:25;100929.14;;;18.41;44.40
49063;BME280;34876;51.464;-0.150;2023-03-21T06:37:54;100926.96;;;18.42;44.38
49063;BME280;34876;51.464;-0.150;2023-03-21T06:40:23;100926.84;;;18.42;44.46
49063;BME280;34876;51.464;-0.150;2023-03-21T06:42:53;100915.59;;;18.37;44.50
49063;BME280;34876;51.464;-0.150;2023-03-21T06:45:22;100922.91;;;18.41;44.56
49063;BME280;34876;51.464;-0.150;2023-03-21T06:47:51;100923.71;;;18.20;45.12
49063;BME280;34876;51.464;-0.150;2023-03-21T06:50:19;100919.13;;;18.37;44.60
49063;BME280;34876;51.464;-0.150;2023-03-21T06:52:48;100916.64;;;18.39;44.59
49063;BME280;34876;51.464;-0.150;2023-03-21T06:55:17;100912.67;;;18.42;44.46
49063;BME280;34876;51.464;-0.150;2023-03-21T06:57:46;100904.18;;;18.38;44.57
49063;BME280;34876;51.464;-0.150;2023-03-21T07:00:17;100899.74;;;18.42;44.51
49063;BME280;34876;51.464;-0.150;2023-03-21T07:02:47;100900.58;;;18.44;44.42
49063;BME280;34876;51.464;-0.150;2023-03-21T07:05:16;100902.76;;;18.43;44.44
49063;BME280;34876;51.464;-0.150;2023-03-21T07:07:45;100902.12;;;18.44;44.38
49063;BME280;34876;51.464;-0.150;2023-03-21T07:10:14;100904.72;;;17.97;45.63
49063;BME280;34876;51.464;-0.150;2023-03-21T07:12:43;100898.51;;;18.36;44.62
49063;BME280;34876;51.464;-0.150;2023-03-21T07:15:13;100898.45;;;18.43;44.50
49063;BME280;34876;51.464;-0.150;2023-03-21T07:17:42;100891.57;;;18.46;44.39
49063;BME280;34876;51.464;-0.150;2023-03-21T07:20:12;100891.46;;;18.45;44.41
49063;BME280;34876;51.464;-0.150;2023-03-21T07:22:41;100891.78;;;18.46;44.35
49063;BME280;34876;51.464;-0.150;2023-03-21T07:25:10;100890.91;;;18.48;44.33
49063;BME280;34876;51.464;-0.150;2023-03-21T07:27:40;100894.14;;;18.47;44.39
49063;BME280;34876;51.464;-0.150;2023-03-21T07:30:10;100894.34;;;18.32;44.81
49063;BME280;34876;51.464;-0.150;2023-03-21T07:32:40;100898.39;;;18.43;44.51
49063;BME280;34876;51.464;-0.150;2023-03-21T07:35:11;100901.03;;;18.35;44.74
49063;BME280;34876;51.464;-0.150;2023-03-21T07:37:42;100904.23;;;18.41;44.68
49063;BME280;34876;51.464;-0.150;2023-03-21T07:40:12;100908.70;;;18.21;45.13
49063;BME280;34876;51.464;-0.150;2023-03-21T07:42:42;100909.50;;;18.40;44.57
49063;BME280;34876;51.464;-0.150;2023-03-21T07:45:11;100911.48;;;18.45;44.58
49063;BME280;34876;51.464;-0.150;2023-03-21T07:47:40;100913.07;;;18.41;45.25
49063;BME280;34876;51.464;-0.150;2023-03-21T07:50:10;100916.66;;;18.47;44.49
49063;BME280;34876;51.464;-0.150;2023-03-21T07:52:40;100912.05;;;18.48;44.38
49063;BME280;34876;51.464;-0.150;2023-03-21T07:55:11;100908.44;;;18.48;44.52
49063;BME280;34876;51.464;-0.150;2023-03-21T07:57:40;100910.29;;;18.33;44.96
49063;BME280;34876;51.464;-0.150;2023-03-21T08:00:10;100907.22;;;18.44;44.61
49063;BME280;34876;51.464;-0.150;2023-03-21T08:02:40;100907.58;;;18.43;44.62
49063;BME280;34876;51.464;-0.150;2023-03-21T08:05:10;100907.60;;;18.46;44.63
49063;BME280;34876;51.464;-0.150;2023-03-21T08:07:40;100903.61;;;18.47;44.56
49063;BME280;34876;51.464;-0.150;2023-03-21T08:10:10;100905.91;;;18.48;44.49
49063;BME280;34876;51.464;-0.150;2023-03-21T08:12:40;100905.29;;;18.48;44.60
49063;BME280;34876;51.464;-0.150;2023-03-21T08:15:10;100906.00;;;18.16;45.32
49063;BME280;34876;51.464;-0.150;2023-03-21T08:17:41;100902.10;;;18.45;44.67
49063;BME280;34876;51.464;-0.150;2023-03-21T08:20:13;100904.27;;;18.50;44.50
49063;BME280;34876;51.464;-0.150;2023-03-21T08:22:46;100899.55;;;18.51;44.53
49063;BME280;34876;51.464;-0.150;2023-03-21T08:25:18;100898.70;;;18.52;44.48
49063;BME280;34876;51.464;-0.150;2023-03-21T08:27:47;100894.95;;;18.54;44.46
49063;BME280;34876;51.464;-0.150;2023-03-21T08:30:20;100901.16;;;18.49;44.58
49063;BME280;34876;51.464;-0.150;2023-03-21T08:32:49;100909.75;;;18.55;44.37
49063;BME280;34876;51.464;-0.150;2023-03-21T08:35:19;100911.66;;;18.52;44.58
49063;BME280;34876;51.464;-0.150;2023-03-21T08:37:48;100915.17;;;18.51;44.52
49063;BME280;34876;51.464;-0.150;2023-03-21T08:40:17;100907.20;;;18.53;44.61
49063;BME280;34876;51.464;-0.150;2023-03-21T08:42:47;100906.49;;;18.54;44.41
49063;BME280;34876;51.464;-0.150;2023-03-21T08:45:17;100906.00;;;18.55;44.40
49063;BME280;34876;51.464;-0.150;2023-03-21T08:47:46;100901.77;;;18.52;44.53
49063;BME280;34876;51.464;-0.150;2023-03-21T08:50:18;100904.93;;;18.58;44.36
49063;BME280;34876;51.464;-0.150;2023-03-21T08:52:48;100905.39;;;18.62;44.31
49063;BME280;34876;51.464;-0.150;2023-03-21T08:55:18;100900.22;;;18.67;44.53
49063;BME280;34876;51.464;-0.150;2023-03-21T08:57:48;100897.26;;;18.75;43.91
49063;BME280;34876;51.464;-0.150;2023-03-21T09:00:19;100891.64;;;18.62;44.23
49063;BME280;34876;51.464;-0.150;2023-03-21T09:02:49;100877.92;;;19.00;43.30
49063;BME280;34876;51.464;-0.150;2023-03-21T09:05:20;100865.91;;;19.04;43.20
49063;BME280;34876;51.464;-0.150;2023-03-21T09:07:50;100872.49;;;19.21;43.02
49063;BME280;34876;51.464;-0.150;2023-03-21T09:10:21;100869.96;;;19.07;43.31
49063;BME280;34876;51.464;-0.150;2023-03-21T09:12:53;100859.64;;;18.88;43.88
49063;BME280;34876;51.464;-0.150;2023-03-21T09:15:24;100867.22;;;19.44;42.40
49063;BME280;34876;51.464;-0.150;2023-03-21T09:17:54;100874.60;;;19.28;42.96
49063;BME280;34876;51.464;-0.150;2023-03-21T09:20:25;100876.15;;;18.82;46.68
49063;BME280;34876;51.464;-0.150;2023-03-21T09:22:58;100876.09;;;18.69;46.90
49063;BME280;34876;51.464;-0.150;2023-03-21T09:25:27;100870.14;;;18.93;44.04
49063;BME280;34876;51.464;-0.150;2023-03-21T09:27:57;100872.87;;;18.86;46.27
49063;BME280;34876;51.464;-0.150;2023-03-21T09:30:26;100870.88;;;18.75;45.50
49063;BME280;34876;51.464;-0.150;2023-03-21T09:32:59;100867.47;;;18.87;43.98
49063;BME280;34876;51.464;-0.150;2023-03-21T09:35:29;100868.28;;;18.86;44.28
49063;BME280;34876;51.464;-0.150;2023-03-21T09:37:58;100861.83;;;18.81;44.26
49063;BME280;34876;51.464;-0.150;2023-03-21T09:40:49;100862.41;;;18.73;44.41
49063;BME280;34876;51.464;-0.150;2023-03-21T09:43:31;100863.29;;;18.34;45.65
49063;BME280;34876;51.464;-0.150;2023-03-21T09:46:08;100861.16;;;18.37;45.43
49063;BME280;34876;51.464;-0.150;2023-03-21T09:48:47;100859.34;;;18.35;46.47
49063;BME280;34876;51.464;-0.150;2023-03-21T09:51:18;100860.10;;;18.66;44.67
49063;BME280;34876;51.464;-0.150;2023-03-21T09:53:49;100861.78;;;18.67;44.87
49063;BME280;34876;51.464;-0.150;2023-03-21T09:56:18;100861.18;;;18.67;44.87
49063;BME280;34876;51.464;-0.150;2023-03-21T09:58:51;100861.01;;;18.43;46.32
49063;BME280;34876;51.464;-0.150;2023-03-21T10:01:25;100862.60;;;18.74;44.47
49063;BME280;34876;51.464;-0.150;2023-03-21T10:03:56;100860.17;;;18.59;44.91
49063;BME280;34876;51.464;-0.150;2023-03-21T10:06:27;100860.55;;;18.59;45.19
49063;BME280;34876;51.464;-0.150;2023-03-21T10:09:05;100866.80;;;18.49;45.50
49063;BME280;34876;51.464;-0.150;2023-03-21T10:11:41;100865.68;;;17.82;47.69
49063;BME280;34876;51.464;-0.150;2023-03-21T10:14:17;100864.12;;;18.21;46.97
49063;BME280;34876;51.464;-0.150;2023-03-21T10:16:50;100872.03;;;18.32;46.18
49063;BME280;34876;51.464;-0.150;2023-03-21T10:19:20;100871.48;;;18.30;46.33
49063;BME280;34876;51.464;-0.150;2023-03-21T10:21:51;100872.96;;;18.60;45.27
49063;BME280;34876;51.464;-0.150;2023-03-21T10:24:23;100868.18;;;18.47;48.47
49063;BME280;34876;51.464;-0.150;2023-03-21T10:26:55;100866.22;;;18.52;45.89
49063;BME280;34876;51.464;-0.150;2023-03-21T10:29:26;100858.72;;;18.66;45.01
49063;BME280;34876;51.464;-0.150;2023-03-21T10:31:58;100857.22;;;18.58;49.01
49063;BME280;34876;51.464;-0.150;2023-03-21T10:34:33;100857.77;;;18.69;45.01
49063;BME280;34876;51.464;-0.150;2023-03-21T10:37:04;100849.26;;;18.79;44.68
49063;BME280;34876;51.464;-0.150;2023-03-21T10:39:36;100849.40;;;18.71;45.00
49063;BME280;34876;51.464;-0.150;2023-03-21T10:42:16;100842.73;;;18.75;44.79
49063;BME280;34876;51.464;-0.150;2023-03-21T10:44:53;100840.44;;;18.43;49.31
49063;BME280;34876;51.464;-0.150;2023-03-21T10:47:25;100840.42;;;18.46;45.80
49063;BME280;34876;51.464;-0.150;2023-03-21T10:49:54;100830.90;;;17.78;50.09
49063;BME280;34876;51.464;-0.150;2023-03-21T10:52:29;100834.30;;;18.49;47.29
49063;BME280;34876;51.464;-0.150;2023-03-21T10:55:14;100834.33;;;18.21;48.40
49063;BME280;34876;51.464;-0.150;2023-03-21T10:57:45;100824.07;;;18.45;46.65
49063;BME280;34876;51.464;-0.150;2023-03-21T11:00:19;100826.53;;;18.17;47.15
49063;BME280;34876;51.464;-0.150;2023-03-21T11:02:50;100820.18;;;18.68;45.56
49063;BME280;34876;51.464;-0.150;2023-03-21T11:05:24;100814.08;;;18.52;46.17
49063;BME280;34876;51.464;-0.150;2023-03-21T11:07:58;100813.71;;;18.77;45.74
49063;BME280;34876;51.464;-0.150;2023-03-21T11:10:30;100808.26;;;18.92;44.98
49063;BME280;34876;51.464;-0.150;2023-03-21T11:13:05;100802.66;;;18.92;44.77
49063;BME280;34876;51.464;-0.150;2023-03-21T11:15:41;100804.80;;;18.72;45.36
49063;BME280;34876;51.464;-0.150;2023-03-21T11:18:18;100794.59;;;18.75;45.53
49063;BME280;34876;51.464;-0.150;2023-03-21T11:20:51;100791.52;;;18.65;45.95
49063;BME280;34876;51.464;-0.150;2023-03-21T11:23:24;100793.98;;;18.63;46.68
49063;BME280;34876;51.464;-0.150;2023-03-21T11:25:54;100793.71;;;18.62;46.65
49063;BME280;34876;51.464;-0.150;2023-03-21T11:28:26;100792.25;;;18.89;45.24
49063;BME280;34876;51.464;-0.150;2023-03-21T11:31:06;100790.85;;;18.92;45.49
49063;BME280;34876;51.464;-0.150;2023-03-21T11:33:38;100788.87;;;18.40;47.50
49063;BME280;34876;51.464;-0.150;2023-03-21T11:36:31;100787.42;;;18.61;46.44
49063;BME280;34876;51.464;-0.150;2023-03-21T11:39:26;100782.48;;;18.42;46.86
49063;BME280;34876;51.464;-0.150;2023-03-21T11:41:56;100782.12;;;18.75;46.86
49063;BME280;34876;51.464;-0.150;2023-03-21T11:44:29;100776.81;;;18.86;45.49
49063;BME280;34876;51.464;-0.150;2023-03-21T11:46:58;100785.22;;;18.75;46.69
49063;BME280;34876;51.464;-0.150;2023-03-21T11:49:28;100788.31;;;18.84;45.80
49063;BME280;34876;51.464;-0.150;2023-03-21T11:52:09;100786.33;;;18.92;45.27
49063;BME280;34876;51.464;-0.150;2023-03-21T11:54:54;100795.29;;;18.88;45.79
49063;BME280;34876;51.464;-0.150;2023-03-21T11:57:29;100793.98;;;18.84;46.64
49063;BME280;34876;51.464;-0.150;2023-03-21T12:00:03;100795.71;;;18.82;46.19
49063;BME280;34876;51.464;-0.150;2023-03-21T12:03:02;100804.31;;;18.64;47.08
49063;BME280;34876;51.464;-0.150;2023-03-21T12:05:47;100800.06;;;18.69;46.50
49063;BME280;34876;51.464;-0.150;2023-03-21T12:08:31;100806.16;;;18.68;46.68
49063;BME280;34876;51.464;-0.150;2023-03-21T12:11:10;100801.01;;;18.79;46.78
49063;BME280;34876;51.464;-0.150;2023-03-21T12:13:52;100802.50;;;18.54;47.40
49063;BME280;34876;51.464;-0.150;2023-03-21T12:16:30;100798.57;;;18.60;47.04
49063;BME280;34876;51.464;-0.150;2023-03-21T12:20:16;100795.21;;;18.66;47.00
49063;BME280;34876;51.464;-0.150;2023-03-21T12:23:00;100791.83;;;18.86;46.04
49063;BME280;34876;51.464;-0.150;2023-03-21T12:25:35;100797.82;;;18.76;46.84
49063;BME280;34876;51.464;-0.150;2023-03-21T12:28:19;100793.54;;;18.87;46.05
49063;BME280;34876;51.464;-0.150;2023-03-21T12:31:03;100792.22;;;18.68;46.78
49063;BME280;34876;51.464;-0.150;2023-03-21T12:33:44;100792.34;;;18.79;46.41
49063;BME280;34876;51.464;-0.150;2023-03-21T12:36:30;100789.82;;;18.70;47.05
49063;BME280;34876;51.464;-0.150;2023-03-21T12:39:14;100777.78;;;18.62;47.36
49063;BME280;34876;51.464;-0.150;2023-03-21T12:41:56;100782.23;;;18.52;47.76
49063;BME280;34876;51.464;-0.150;2023-03-21T12:44:31;100770.78;;;18.66;47.38
49063;BME280;34876;51.464;-0.150;2023-03-21T12:47:08;100764.61;;;18.78;47.61
49063;BME280;34876;51.464;-0.150;2023-03-21T12:49:45;100765.67;;;18.90;46.32
49063;BME280;34876;51.464;-0.150;2023-03-21T12:52:20;100770.48;;;18.90;46.38
49063;BME280;34876;51.464;-0.150;2023-03-21T12:54:55;100773.95;;;18.74;46.93
49063;BME280;34876;51.464;-0.150;2023-03-21T12:57:28;100772.89;;;18.49;47.98
49063;BME280;34876;51.464;-0.150;2023-03-21T13:00:02;100772.03;;;18.73;47.01
49063;BME280;34876;51.464;-0.150;2023-03-21T13:02:37;100772.17;;;18.77;46.82
49063;BME280;34876;51.464;-0.150;2023-03-21T13:05:16;100767.38;;;18.90;46.48
49063;BME280;34876;51.464;-0.150;2023-03-21T13:07:50;100761.63;;;18.92;45.95
49063;BME280;34876;51.464;-0.150;2023-03-21T13:10:22;100767.31;;;18.79;46.59
49063;BME280;34876;51.464;-0.150;2023-03-21T13:13:04;100771.83;;;18.70;47.13